Latest Weather Observations for Goulburn Airport

IDN60801

Issued at 11:32 am EST Monday 2 May 2016 (issued every 30 minutes, with the page automatically refreshed every 10 minutes)

About weather observations | Map of weather stations | Latest weather observations for NSW | Other Formats
Station Details ID: 070330 Name: GOULBURN AIRPORT AWS Lat: -34.81 Lon: 149.73 Height: 640.0 m
Data from the previous 72 hours. | See also: Recent months at Goulburn Airport
Date/Time
EST
Temp
°C
App
Temp
°C
Dew
Point
Rel
Hum
%
Delta-T
°C
Wind Press
QNH
hPa
Press
MSL
hPa
Rain
since 9 am
mm
Dir
 
Spd
km/h
Gust
km/h
Spd
kts
Gust
kts
02/11:30am 13.8 7.1 1.5 43 5.5 WNW 26 35 14 19 1015.9 1016.0 0.0
02/11:00am 13.0 5.8 1.0 44 5.3 WNW 28 35 15 19 1016.4 1016.6 0.0
02/10:30am 12.4 5.4 2.0 49 4.7 WNW 28 35 15 19 1016.6 1016.7 0.0
02/10:00am 12.0 5.8 2.2 51 4.4 WNW 24 32 13 17 1017.0 1017.1 0.0
02/09:30am 11.4 5.3 2.9 56 3.8 W 24 32 13 17 1017.4 1017.5 0.0
02/09:00am 9.9 3.6 3.6 65 2.9 WNW 26 35 14 19 1017.7 1017.9 0.4
02/08:30am 8.9 3.8 4.3 73 2.1 NW 20 26 11 14 1017.9 1018.1 0.4
02/08:00am 7.3 3.2 4.6 83 1.2 NW 15 19 8 10 1018.0 1018.2 0.4
02/07:30am 6.1 2.0 4.3 88 0.8 NW 15 19 8 10 1017.7 1017.9 0.4
02/07:00am 4.2 -0.1 3.0 92 0.5 NW 15 19 8 10 1017.6 1017.8 0.4
02/06:30am 3.5 -1.7 2.3 92 0.5 NNW 19 20 10 11 1017.5 1017.6 0.4
02/06:00am 4.5 -0.3 2.8 89 0.7 NW 17 19 9 10 1017.3 1017.4 0.4
02/05:30am 4.5 -0.3 2.8 89 0.7 NW 17 20 9 11 1017.2 1017.3 0.4
02/05:00am 5.1 0.8 3.3 88 0.8 WNW 15 17 8 9 1016.9 1017.0 0.4
02/04:30am 4.8 1.2 3.1 89 0.7 NW 11 13 6 7 1016.4 1016.6 0.4
02/04:00am 5.0 1.8 3.2 88 0.8 NW 9 11 5 6 1016.3 1016.5 0.4
02/03:30am 5.7 1.5 4.0 89 0.8 NW 15 17 8 9 1016.3 1016.5 0.4
02/03:00am 4.6 1.0 2.8 88 0.8 WNW 11 15 6 8 1016.3 1016.5 0.4
02/02:30am 4.5 0.1 2.7 88 0.8 W 15 19 8 10 1016.4 1016.6 0.4
02/02:00am 5.7 1.8 3.2 84 1.1 W 13 17 7 9 1016.7 1016.8 0.4
02/01:30am 6.9 3.1 3.7 80 1.4 W 13 17 7 9 1016.6 1016.7 0.4
02/01:00am 7.1 3.7 4.2 82 1.3 W 11 15 6 8 1016.9 1017.0 0.4
02/12:30am 7.3 4.2 3.5 77 1.7 WNW 9 13 5 7 1016.9 1017.0 0.4
02/12:00am 8.2 5.6 4.0 75 1.9 NW 7 15 4 8 1017.0 1017.1 0.4
 
Date/Time
EST
Temp
°C
App
Temp
°C
Dew
Point
Rel
Hum
%
Delta-T
°C
Wind Press
QNH
hPa
Press
MSL
hPa
Rain
since 9 am
mm
Dir
 
Spd
km/h
Gust
km/h
Spd
kts
Gust
kts
01/11:30pm 8.6 4.9 4.4 75 1.9 WNW 13 17 7 9 1017.0 1017.1 0.4
01/11:00pm 9.1 4.2 4.3 72 2.2 W 19 24 10 13 1016.8 1016.9 0.4
01/10:30pm 9.6 3.0 4.4 70 2.4 W 28 35 15 19 1016.4 1016.6 0.4
01/10:00pm 9.9 3.4 4.5 69 2.5 W 28 39 15 21 1016.4 1016.6 0.4
01/09:30pm 9.9 4.4 4.1 67 2.7 W 22 30 12 16 1016.7 1016.8 0.4
01/09:00pm 10.5 5.4 4.2 65 2.9 W 20 32 11 17 1016.6 1016.7 0.4
01/08:30pm 11.2 3.8 4.2 62 3.3 WNW 32 46 17 25 1015.9 1016.0 0.4
01/08:00pm 11.5 4.0 4.7 63 3.2 WNW 33 44 18 24 1015.3 1015.4 0.4
01/07:30pm 11.9 4.1 4.9 62 3.3 WNW 35 48 19 26 1014.9 1014.9 0.4
01/07:00pm 12.3 3.7 4.5 59 3.7 WNW 39 50 21 27 1014.3 1014.4 0.4
01/06:30pm 12.4 4.2 4.9 60 3.6 WNW 37 52 20 28 1014.0 1014.1 0.4
01/06:00pm 12.9 3.3 4.3 56 4.1 WNW 44 57 24 31 1013.7 1013.8 0.4
01/05:39pm 13.4 4.4 4.3 54 4.3 WNW 41 59 22 32 1013.4 1013.4 0.4
01/05:30pm 13.6 4.0 4.5 54 4.3 WNW 44 57 24 31 1013.4 1013.4 0.4
01/05:00pm 14.5 4.7 5.3 54 4.5 W 46 65 25 35 1012.9 1013.0 0.4
01/04:30pm 15.4 5.7 5.9 53 4.7 WNW 46 65 25 35 1012.7 1012.8 0.4
01/04:02pm 16.7 5.8 5.6 48 5.5 WNW 52 70 28 38 1012.5 1012.6 0.4
01/04:00pm 16.7 5.4 5.3 47 5.7 WNW 54 70 29 38 1012.4 1012.5 0.4
01/03:30pm 17.5 5.4 4.1 41 6.5 WNW 57 78 31 42 1012.2 1012.2 0.4
01/03:01pm 18.2 7.9 6.7 47 5.9 WNW 50 76 27 41 1011.8 1011.8 0.4
01/03:00pm 18.2 8.0 7.0 48 5.8 WNW 50 65 27 35 1011.7 1011.7 0.4
01/02:30pm 18.0 7.2 7.7 51 5.4 WNW 54 74 29 40 1011.2 1011.3 0.4
01/02:00pm 18.9 8.9 8.0 49 5.8 WNW 50 74 27 40 1011.1 1011.2 0.4
01/01:30pm 19.4 7.8 8.1 48 6.0 WNW 59 83 32 45 1011.0 1011.1 0.4
01/01:02pm 19.6 8.4 9.8 53 5.4 WNW 59 80 32 43 1011.2 1011.3 0.4
01/01:00pm 19.4 8.1 9.3 52 5.5 WNW 59 76 32 41 1011.3 1011.4 0.4
01/12:30pm 18.2 8.1 10.3 60 4.4 WNW 54 82 29 44 1011.3 1011.4 0.4
01/12:15pm 19.0 10.1 12.0 64 4.0 WNW 50 72 27 39 1011.4 1011.5 0.4
01/12:00pm 18.8 10.9 13.9 73 2.9 WNW 48 63 26 34 1011.3 1011.4 0.4
01/11:30am 16.9 8.5 13.6 81 1.9 WNW 50 70 27 38 1012.0 1012.0 0.4
01/11:05am 17.7 9.2 13.2 75 2.6 WNW 50 69 27 37 1012.1 1012.1 0.0
01/11:00am 18.1 9.7 13.4 74 2.7 WNW 50 67 27 36 1012.2 1012.2 0.0
01/10:36am 18.9 10.4 13.3 70 3.3 WNW 50 69 27 37 1012.3 1012.4 0.0
01/10:30am 19.1 10.0 12.6 66 3.8 WNW 52 69 28 37 1012.2 1012.2 0.0
01/10:00am 19.4 11.6 14.0 71 3.2 WNW 48 67 26 36 1012.4 1012.5 0.0
01/09:57am 18.8 10.8 13.4 71 3.2 WNW 48 67 26 36 1012.5 1011.6 0.0
01/09:30am 19.2 12.2 13.6 70 3.3 NW 43 59 23 32 1012.7 1011.8 0.0
01/09:05am 18.3 10.6 13.2 72 3.0 NW 46 65 25 35 1012.6 1011.7 0.0
01/09:00am 18.5 10.9 13.6 73 2.9 NW 46 61 25 33 1012.5 1011.6 5.0
01/08:30am 17.9 11.6 13.6 76 2.5 NW 39 57 21 31 1012.7 1011.8 5.0
01/08:04am 16.8 11.1 13.1 79 2.1 NW 35 54 19 29 1012.6 1011.7 5.0
01/08:00am 16.8 11.1 13.1 79 2.1 NW 35 50 19 27 1012.7 1011.8 5.0
01/07:30am 16.2 11.2 13.5 84 1.6 NW 32 46 17 25 1012.9 1012.0 5.0
01/07:00am 16.0 11.5 13.8 87 1.3 NW 30 43 16 23 1013.4 1012.5 5.0
01/06:30am 15.8 12.1 13.8 88 1.2 NW 26 37 14 20 1014.0 1013.1 4.8
01/06:00am 16.0 11.9 13.8 87 1.3 NW 28 39 15 21 1014.1 1013.2 4.4
01/05:30am 15.6 13.2 14.3 92 0.8 NW 20 28 11 15 1013.8 1012.9 4.0
01/05:00am 14.9 12.2 14.7 99 0.1 NNW 22 33 12 18 1014.1 1013.2 3.0
01/04:30am 12.0 11.2 11.8 99 0.1 W 7 9 4 5 1014.1 1013.2 0.8
01/04:00am 10.8 10.6 10.6 99 0.1 N 2 6 1 3 1014.2 1013.3 0.2
01/03:30am 9.5 8.6 9.4 99 0.1 NNE 4 11 2 6 1014.2 1013.3 0.0
01/03:23am 9.2 8.3 9.1 99 0.1 NE 4 7 2 4 1013.8 1012.9 0.0
01/03:00am 7.6 7.0 7.3 98 0.1 CALM 0 0 0 0 1014.3 1013.4 0.0
01/02:30am 8.1 7.6 8.0 99 0.0 CALM 0 0 0 0 1014.2 1013.3 0.0
01/02:00am 8.2 7.7 7.9 98 0.1 CALM 0 0 0 0 1014.6 1013.8 0.0
01/01:49am 7.8 7.2 7.4 97 0.2 CALM 0 2 0 1 1015.0 1014.1 0.0
01/01:46am 7.8 6.8 7.4 97 0.2 NE 2 7 1 4 1014.9 1014.0 0.0
01/01:30am 7.9 6.9 7.5 97 0.2 NNE 2 6 1 3 1015.3 1014.4 0.0
01/01:00am 8.9 8.6 8.5 97 0.2 CALM 0 0 0 0 1015.5 1014.6 0.0
01/12:49am 9.1 8.8 8.6 97 0.3 CALM 0 0 0 0 1015.4 1014.5 0.0
01/12:30am 8.7 8.2 7.9 95 0.4 CALM 0 0 0 0 1015.8 1014.9 0.0
01/12:00am 9.6 9.3 8.7 94 0.5 CALM 0 0 0 0 1016.7 1015.8 0.0
 
Date/Time
EST
Temp
°C
App
Temp
°C
Dew
Point
Rel
Hum
%
Delta-T
°C
Wind Press
QNH
hPa
Press
MSL
hPa
Rain
since 9 am
mm
Dir
 
Spd
km/h
Gust
km/h
Spd
kts
Gust
kts
30/11:30pm 10.8 8.7 9.6 92 0.6 NNW 11 11 6 6 1017.2 1016.3 0.0
30/11:00pm 12.3 11.0 11.4 94 0.5 NNW 9 11 5 6 1017.5 1016.7 0.0
30/10:30pm 12.1 10.0 11.2 94 0.5 NNW 13 15 7 8 1018.0 1017.2 0.0
30/10:00pm 12.0 9.9 11.1 94 0.5 NNW 13 15 7 8 1018.3 1017.4 0.0
30/09:30pm 12.4 10.7 11.3 93 0.6 NNW 11 15 6 8 1018.3 1017.4 0.0
30/09:00pm 13.0 11.1 11.7 92 0.7 NNW 13 15 7 8 1018.4 1017.5 0.0
30/08:30pm 12.3 11.4 10.7 90 0.9 NNW 6 9 3 5 1018.4 1017.5 0.0
30/08:00pm 12.6 11.5 10.0 84 1.4 NW 6 7 3 4 1018.4 1017.5 0.0
30/07:30pm 14.0 12.9 12.0 88 1.1 N 9 11 5 6 1018.4 1017.5 0.0
30/07:00pm 13.7 12.9 11.2 85 1.4 N 6 7 3 4 1018.3 1017.4 0.0
30/06:30pm 14.4 13.0 11.0 80 1.9 N 9 11 5 6 1018.1 1017.3 0.0
30/06:00pm 16.0 14.0 11.6 75 2.5 NNW 13 15 7 8 1017.8 1017.0 0.0
30/05:30pm 17.0 15.0 11.5 70 3.1 NNW 13 15 7 8 1017.7 1016.9 0.0
30/05:00pm 19.0 16.8 12.0 64 4.0 NW 15 22 8 12 1017.8 1017.0 0.0
30/04:30pm 20.2 17.4 11.4 57 5.0 NW 17 22 9 12 1017.6 1016.8 0.0
30/04:00pm 20.7 17.5 11.9 57 5.1 NW 20 26 11 14 1017.7 1016.9 0.0
30/03:30pm 21.2 17.4 12.3 57 5.2 NW 24 32 13 17 1017.6 1016.8 0.0
30/03:00pm 21.1 17.8 12.8 59 4.8 NW 22 32 12 17 1017.6 1016.8 0.0
30/02:30pm 20.2 17.3 12.4 61 4.5 WNW 19 22 10 12 1017.6 1016.8 0.0
30/02:00pm 20.6 17.6 12.6 60 4.6 W 20 32 11 17 1017.6 1016.8 0.0
30/01:30pm 21.6 17.5 11.6 53 5.7 WNW 24 30 13 16 1017.6 1016.8 0.0
30/01:00pm 21.3 17.5 12.4 57 5.2 WNW 24 32 13 17 1017.7 1016.9 0.0
30/12:30pm 21.1 18.7 14.5 66 4.0 W 20 41 11 22 1018.1 1017.3 0.0
30/12:00pm 18.2 15.5 13.5 74 2.7 WNW 20 28 11 15 1018.8 1018.0 0.0
30/11:30am 18.3 15.3 13.8 75 2.6 W 22 30 12 16 1019.3 1018.5 0.0
30/11:20am 18.0 15.0 13.7 76 2.5 W 22 28 12 15 1019.5 1018.7 0.0
30/11:00am 18.0 15.7 14.1 78 2.3 W 19 24 10 13 1019.7 1018.9 0.0
30/10:53am 18.1 16.6 14.2 78 2.3 WNW 15 20 8 11 1020.0 1019.1 0.0
30/10:30am 17.9 17.0 14.8 82 1.9 NW 13 15 7 8 1020.0 1019.1 0.0
30/10:00am 17.4 17.2 14.7 84 1.6 NW 9 13 5 7 1020.3 1019.5 0.0
30/09:30am 16.4 17.1 14.6 89 1.1 N 4 7 2 4 1020.2 1019.4 0.0
30/09:00am 15.8 17.3 14.7 93 0.6 CALM 0 0 0 0 1020.4 1019.6 5.0
30/08:30am 14.8 16.1 14.0 95 0.5 CALM 0 0 0 0 1020.4 1019.6 5.0
30/08:00am 14.5 15.4 13.9 96 0.3 WSW 2 6 1 3 1020.4 1019.6 5.0
30/07:30am 14.0 13.9 13.2 95 0.5 W 6 7 3 4 1020.1 1019.3 5.0
30/07:00am 13.9 13.1 13.0 94 0.5 NW 9 9 5 5 1019.7 1018.9 5.0
30/06:30am 14.3 13.3 13.3 94 0.6 NNW 11 13 6 7 1019.3 1018.5 5.0
30/06:00am 14.7 13.4 13.6 93 0.6 NNW 13 17 7 9 1019.1 1018.3 5.0
30/05:30am 14.6 14.4 13.5 93 0.6 N 7 11 4 6 1019.0 1018.2 5.0
30/05:00am 14.5 13.6 13.7 95 0.5 N 11 13 6 7 1019.1 1018.3 4.8
30/04:30am 14.6 13.7 13.8 95 0.5 N 11 13 6 7 1019.1 1018.3 4.8
30/04:00am 14.6 13.7 13.8 95 0.5 N 11 15 6 8 1019.2 1018.4 4.2
30/03:30am 14.7 13.8 13.7 94 0.6 N 11 13 6 7 1019.1 1018.3 3.8
30/03:00am 14.8 14.3 13.8 94 0.6 N 9 15 5 8 1019.1 1018.3 3.6
30/02:30am 14.8 14.4 14.0 95 0.5 N 9 11 5 6 1019.3 1018.5 3.6
30/02:00am 14.9 14.5 14.1 95 0.5 N 9 13 5 7 1019.5 1018.7 3.6
30/01:30am 15.1 14.0 14.3 95 0.5 N 13 15 7 8 1019.9 1019.0 3.4
30/01:00am 15.4 13.6 14.4 94 0.6 N 17 20 9 11 1019.9 1019.0 3.2
30/12:30am 15.2 13.8 14.6 96 0.4 N 15 17 8 9 1020.1 1019.3 2.8
30/12:00am 15.2 14.2 14.6 96 0.4 N 13 15 7 8 1020.2 1019.4 2.8
 
Date/Time
EST
Temp
°C
App
Temp
°C
Dew
Point
Rel
Hum
%
Delta-T
°C
Wind Press
QNH
hPa
Press
MSL
hPa
Rain
since 9 am
mm
Dir
 
Spd
km/h
Gust
km/h
Spd
kts
Gust
kts
29/11:30pm 15.2 14.6 14.7 97 0.3 N 11 13 6 7 1020.4 1019.6 2.6
29/11:00pm 15.4 14.1 14.8 96 0.4 N 15 19 8 10 1020.7 1019.9 2.4
29/10:30pm 15.4 14.9 14.9 97 0.3 N 11 13 6 7 1021.2 1020.4 2.2
29/10:00pm 15.5 15.7 14.7 95 0.5 NW 7 9 4 5 1021.6 1020.8 2.0
29/09:30pm 15.6 15.9 14.6 94 0.6 NNW 6 7 3 4 1021.4 1020.7 1.4
29/09:00pm 15.7 15.8 14.4 92 0.8 NW 7 11 4 6 1021.2 1020.4 1.4
29/08:30pm 15.8 16.0 14.2 90 0.9 NNW 6 9 3 5 1021.1 1020.3 1.2
29/08:00pm 16.4 16.0 14.1 86 1.3 NNW 9 11 5 6 1021.2 1020.4 0.6
29/07:30pm 17.3 15.8 13.0 76 2.5 WNW 13 17 7 9 1020.7 1019.9 0.0
29/07:00pm 18.3 16.4 11.8 66 3.7 WNW 13 15 7 8 1020.2 1019.4 0.0
29/06:30pm 18.9 16.4 11.2 61 4.3 NW 15 17 8 9 1020.0 1019.1 0.0
29/06:00pm 20.1 17.5 10.8 55 5.2 NW 15 20 8 11 1020.0 1019.1 0.0
29/05:30pm 21.1 17.4 10.3 50 6.0 NW 20 26 11 14 1019.7 1018.9 0.0
29/05:00pm 21.6 17.9 10.1 48 6.4 WNW 20 30 11 16 1019.4 1018.6 0.0
29/04:30pm 22.4 18.7 9.6 44 7.1 NW 19 26 10 14 1019.0 1018.2 0.0
29/04:00pm 23.1 19.8 9.5 42 7.6 N 17 22 9 12 1019.0 1018.2 0.0
29/03:30pm 22.9 18.9 8.2 39 8.0 NNW 19 24 10 13 1019.1 1018.3 0.0
29/03:00pm 23.1 18.3 7.2 36 8.5 NNW 22 30 12 16 1019.2 1018.4 0.0
29/02:30pm 24.6 20.5 7.7 34 9.2 NNW 19 28 10 15 1019.1 1018.3 0.0
29/02:00pm 23.0 18.0 6.3 34 8.8 NNW 22 32 12 17 1019.3 1018.5 0.0
29/01:30pm 23.3 17.8 6.1 33 9.0 NNW 24 32 13 17 1019.6 1018.8 0.0
29/01:00pm 23.1 17.7 6.4 34 8.8 NNW 24 41 13 22 1020.1 1019.3 0.0
29/12:30pm 23.0 16.9 6.7 35 8.6 NNW 28 37 15 20 1020.7 1019.9 0.0
29/12:00pm 23.8 17.8 7.0 34 9.0 N 28 37 15 20 1021.0 1020.2 0.0

Other Formats:

Comma delimited format used in spreadsheet applications
http://www.bom.gov.au/fwo/IDN60801/IDN60801.95716.axf

JavaScript Object Notation format (JSON) in row-major order
http://www.bom.gov.au/fwo/IDN60801/IDN60801.95716.json